CMA CGM Tosca — FMEL — position and weather

sailwx.info

Track history (hours):
 
Tides and Currents Weather Stations Pressure Air Temp Water Temp Dewpoint Dewpoint Depression Visibility Wind Speed Wind Dir Waves Ship Positions

CMA CGM Tosca

Last reported at 2016-Feb-07 07:31 UTC. Time now 2016-Feb-12 12:09 UTC.
Position N 36°24' E 014°48'.

Length 334 m; draft 14.6 m.

Type: Ship. MMSI: 228335900.

Date/timePositionNaut miles runAvg speedWind from/ knotsBaromVisibWave heightAir tempDewpointWater temp
2016-Feb-07 07:31N 36°24' E 014°48'1919.6
2016-Feb-07 06:34N 36°31' E 014°26'1817.9
2016-Feb-07 05:34N 36°35' E 014°05'1918.6
2016-Feb-07 04:33N 36°41' E 013°42'37617.9
2016-Feb-06 07:33N 37°22' E 005°54'1616.2
2016-Feb-06 06:33N 37°20' E 005°34'1916.8
2016-Feb-06 05:26N 37°16' E 005°10'1517.7
2016-Feb-06 04:33N 37°13' E 004°52'1918.4
2016-Feb-06 03:33N 37°11' E 004°28'2017.9
2016-Feb-06 02:26N 37°08' E 004°04'1517.6
2016-Feb-06 01:33N 37°05' E 003°45'1717.1
2016-Feb-06 00:33N 37°02' E 003°23'1716.0
2016-Feb-05 23:31N 37°01' E 003°03'1716.2
2016-Feb-05 22:28N 36°59' E 002°42'1617.5
2016-Feb-05 21:33N 36°56' E 002°22'3517.3
2016-Feb-05 19:33N 36°51' E 001°39'2117.6
2016-Feb-05 18:22N 36°47' E 001°13'3517.9
2016-Feb-05 16:26N 36°42' E 000°31'5318.2
2016-Feb-05 13:31N 36°34' W 000°35'21717.5
2016-Feb-05 01:07N 36°00' W 005°01'1018.1
2016-Feb-05 00:33N 35°59' W 005°14'1817.8
2016-Feb-04 23:33N 35°55' W 005°35'12116.6
2016-Feb-04 16:17N 36°17' W 008°02'1215.3
2016-Feb-04 15:32N 36°20' W 008°16'1716.8
2016-Feb-04 14:32N 36°25' W 008°36'1717.1
2016-Feb-04 13:32N 36°29' W 008°56'2316.7
2016-Feb-04 12:08N 36°39' W 009°23'1017.0
2016-Feb-04 11:32N 36°46' W 009°31'1717.2
2016-Feb-04 10:32N 37°03' W 009°37'3417.3
2016-Feb-04 08:33N 37°36' W 009°48'2019.6
2016-Feb-04 07:33N 37°55' W 009°54'1818.0
2016-Feb-04 06:33N 38°12' W 009°60'1818.3
2016-Feb-04 05:33N 38°30' W 010°04'1817.9
2016-Feb-04 04:33N 38°48' W 010°07'1817.8
2016-Feb-04 03:33N 39°06' W 010°08'1818.0
2016-Feb-04 02:33N 39°24' W 010°07'1818.1
2016-Feb-04 01:33N 39°42' W 010°06'2019.1
2016-Feb-04 00:29N 40°02' W 010°05'1818.2
2016-Feb-03 23:29N 40°20' W 010°06'1717.4
2016-Feb-03 22:32N 40°37' W 010°06'1918.9
2016-Feb-03 21:32N 40°56' W 010°05'1918.6
2016-Feb-03 20:32N 41°14' W 010°06'1817.8
2016-Feb-03 19:32N 41°32' W 010°07'63215.3
2016-Feb-02 02:09N 49°37' W 000°27'1016.8
2016-Feb-02 01:34N 49°33' W 000°13'1212.0
2016-Feb-02 00:34N 49°29' E 000°05'4 3.4
2016-Feb-01 23:31N 49°29' E 000°10'0 0.0
2016-Feb-01 22:31N 49°29' E 000°10'0 0.0
2016-Feb-01 21:31N 49°29' E 000°10'0 0.0
2016-Feb-01 20:28N 49°29' E 000°10'0 0.0
2016-Feb-01 19:31N 49°29' E 000°10'0 0.0
2016-Feb-01 18:31N 49°29' E 000°10'0 0.0
2016-Feb-01 17:31N 49°29' E 000°10'0 0.0
2016-Feb-01 16:31N 49°29' E 000°10'0 0.0
2016-Feb-01 15:31N 49°29' E 000°10'0 0.0
2016-Feb-01 14:31N 49°29' E 000°10'0 0.0
2016-Feb-01 13:31N 49°29' E 000°10'0 0.0
2016-Feb-01 12:31N 49°29' E 000°10'0 0.0
2016-Feb-01 11:31N 49°29' E 000°10'0 0.0
2016-Feb-01 10:31N 49°29' E 000°10'0 0.0
2016-Feb-01 09:31N 49°29' E 000°10'0 0.0
2016-Feb-01 08:31N 49°29' E 000°10'0 0.0
2016-Feb-01 07:31N 49°29' E 000°10'0 0.0
2016-Feb-01 06:31N 49°29' E 000°10'0 0.0
2016-Feb-01 05:31N 49°29' E 000°10'0 0.0
2016-Feb-01 04:31N 49°29' E 000°10'1 1.1
2016-Feb-01 03:33N 49°28' E 000°08'1010.1
2016-Feb-01 02:33N 49°31' W 000°06'7 7.4
2016-Feb-01 01:33N 49°38' W 000°11'1110.8
2016-Feb-01 00:33N 49°49' W 000°10'1110.6
2016-Jan-31 23:33N 49°60' W 000°09'2610.8
2016-Jan-31 21:08N 50°26' W 000°04'8 9.3
2016-Jan-31 20:18N 50°30' E 000°06'810.5
2016-Jan-31 19:30N 50°31' E 000°19'1010.7
2016-Jan-31 18:33N 50°33' E 000°35'1110.7
2016-Jan-31 17:33N 50°40' E 000°48'1110.9
2016-Jan-31 16:33N 50°46' E 001°02'1110.8
2016-Jan-31 15:33N 50°53' E 001°16'1010.2
2016-Jan-31 14:33N 51°00' E 001°26'1010.0
2016-Jan-31 13:34N 51°06' E 001°39'9 9.2
2016-Jan-31 12:34N 51°03' E 001°52'1211.7
2016-Jan-31 11:33N 51°01' E 002°11'0 0.1
2016-Jan-31 10:30N 51°00' E 002°11'0 0.0
2016-Jan-31 09:33N 51°00' E 002°11'0 0.0
2016-Jan-31 08:33N 51°00' E 002°11'0 0.0
2016-Jan-31 07:33N 51°00' E 002°11'0 0.0
2016-Jan-31 06:33N 51°00' E 002°11'0 0.0
2016-Jan-31 05:24N 51°00' E 002°11'0 0.0
2016-Jan-31 04:18N 51°00' E 002°11'0 0.0
2016-Jan-31 03:30N 51°00' E 002°11'0 0.0
2016-Jan-31 02:33N 51°00' E 002°11'3 3.0
2016-Jan-31 01:33N 51°03' E 002°08'1313.3
2016-Jan-31 00:34N 51°02' E 001°47'6 5.9
2016-Jan-30 23:33N 51°07' E 001°43'2019.9
2016-Jan-30 22:33N 51°21' E 002°06'1717.0
2016-Jan-30 21:33N 51°23' E 002°33'9 9.3
2016-Jan-30 20:34N 51°25' E 002°47'1615.9
2016-Jan-30 19:34N 51°24' E 003°13'1514.5
2016-Jan-30 18:33N 51°26' E 003°36'9 8.6
2016-Jan-30 17:33N 51°21' E 003°48'9 9.5
2016-Jan-30 16:33N 51°24' E 004°02'8 8.4
2016-Jan-30 15:33N 51°21' E 004°15'4 3.8
2016-Jan-30 14:33N 51°17' E 004°16'0 0.0
2016-Jan-30 13:33N 51°17' E 004°16'0 0.0
2016-Jan-30 12:33N 51°17' E 004°16'0 0.0
2016-Jan-30 11:33N 51°17' E 004°16'0 0.0
2016-Jan-30 10:33N 51°17' E 004°16'0 0.0
2016-Jan-30 09:33N 51°17' E 004°16'0 0.0
2016-Jan-30 08:33N 51°17' E 004°16'0 0.0
2016-Jan-30 07:33N 51°17' E 004°16'0 0.0
2016-Jan-30 06:33N 51°17' E 004°16'0 0.0
2016-Jan-30 05:33N 51°17' E 004°16'0 0.0
2016-Jan-30 04:33N 51°17' E 004°16'0 0.0
2016-Jan-30 03:33N 51°17' E 004°16'0 0.0
2016-Jan-30 02:33N 51°17' E 004°16'0 0.0
2016-Jan-30 01:33N 51°17' E 004°16'0 0.0
2016-Jan-30 00:32N 51°17' E 004°16'0 0.0
2016-Jan-29 23:32N 51°17' E 004°16'0 0.0
2016-Jan-29 22:26N 51°17' E 004°16'0 0.0
2016-Jan-29 21:32N 51°17' E 004°16'0 0.0
2016-Jan-29 20:28N 51°17' E 004°16'0 0.0
2016-Jan-29 19:31N 51°17' E 004°16'0 0.0
2016-Jan-29 18:28N 51°17' E 004°16'0 0.0
2016-Jan-29 17:31N 51°17' E 004°16'0 0.0
2016-Jan-29 16:31N 51°17' E 004°16'2 1.8
2016-Jan-29 15:33N 51°19' E 004°16'6 5.7
2016-Jan-29 14:33N 51°23' E 004°10'8 7.8
2016-Jan-29 13:34N 51°24' E 003°58'10 9.9
2016-Jan-29 12:33N 51°25' E 003°42'1211.7
2016-Jan-29 11:34N 51°24' E 003°23'1515.1
2016-Jan-29 10:34N 51°25' E 002°59'1515.1
2016-Jan-29 09:33N 51°38' E 003°11'8 8.4
2016-Jan-29 08:33N 51°46' E 003°08'8015.9
2016-Jan-29 03:33N 52°60' E 003°60'1919.1
2016-Jan-29 02:33N 53°12' E 004°24'2019.9
2016-Jan-29 01:32N 53°29' E 004°42'2020.2
2016-Jan-29 00:33N 53°37' E 005°12'1919.4
2016-Jan-28 23:33N 53°44' E 005°43'1919.1
2016-Jan-28 22:34N 53°49' E 006°14'1919.1
2016-Jan-28 21:33N 53°54' E 006°46'2117.6
2016-Jan-28 20:21N 53°58' E 007°21'1518.7
2016-Jan-28 19:34N 54°02' E 007°45'1817.5
2016-Jan-28 18:33N 54°00' E 008°15'1616.5
2016-Jan-28 17:33N 53°54' E 008°41'1413.8
2016-Jan-28 16:33N 53°52' E 009°04'1110.7
2016-Jan-28 15:33N 53°49' E 009°22'1111.1
2016-Jan-28 14:33N 53°40' E 009°31'9 9.0
2016-Jan-28 13:33N 53°34' E 009°43'8 7.5
2016-Jan-28 12:33N 53°32' E 009°55'0 0.0
2016-Jan-28 11:33N 53°32' E 009°55'0 0.0
2016-Jan-28 10:33N 53°32' E 009°55'0 0.0
2016-Jan-28 09:33N 53°32' E 009°55'0 0.0
2016-Jan-28 08:33N 53°32' E 009°55'  
Track history (hours):
 
Tides and Currents Weather Stations Pressure Air Temp Water Temp Dewpoint Dewpoint Depression Visibility Wind Speed Wind Dir Waves Ship Positions

CMA CGM Tosca

Last reported at 2016-Feb-07 07:31 UTC. Time now 2016-Feb-12 12:09 UTC.
Position N 36°24' E 014°48'.

Length 334 m; draft 14.6 m.

Type: Ship. MMSI: 228335900.

Date/timePositionNaut miles runAvg speedWind from/ knotsBaromVisibWave heightAir tempDewpointWater temp
2016-Feb-07 07:31N 36°24' E 014°48'1919.6
2016-Feb-07 06:34N 36°31' E 014°26'1817.9
2016-Feb-07 05:34N 36°35' E 014°05'1918.6
2016-Feb-07 04:33N 36°41' E 013°42'37617.9
2016-Feb-06 07:33N 37°22' E 005°54'1616.2
2016-Feb-06 06:33N 37°20' E 005°34'1916.8
2016-Feb-06 05:26N 37°16' E 005°10'1517.7
2016-Feb-06 04:33N 37°13' E 004°52'1918.4
2016-Feb-06 03:33N 37°11' E 004°28'2017.9
2016-Feb-06 02:26N 37°08' E 004°04'1517.6
2016-Feb-06 01:33N 37°05' E 003°45'1717.1
2016-Feb-06 00:33N 37°02' E 003°23'1716.0
2016-Feb-05 23:31N 37°01' E 003°03'1716.2
2016-Feb-05 22:28N 36°59' E 002°42'1617.5
2016-Feb-05 21:33N 36°56' E 002°22'3517.3
2016-Feb-05 19:33N 36°51' E 001°39'2117.6
2016-Feb-05 18:22N 36°47' E 001°13'3517.9
2016-Feb-05 16:26N 36°42' E 000°31'5318.2
2016-Feb-05 13:31N 36°34' W 000°35'21717.5
2016-Feb-05 01:07N 36°00' W 005°01'1018.1
2016-Feb-05 00:33N 35°59' W 005°14'1817.8
2016-Feb-04 23:33N 35°55' W 005°35'12116.6
2016-Feb-04 16:17N 36°17' W 008°02'1215.3
2016-Feb-04 15:32N 36°20' W 008°16'1716.8
2016-Feb-04 14:32N 36°25' W 008°36'1717.1
2016-Feb-04 13:32N 36°29' W 008°56'2316.7
2016-Feb-04 12:08N 36°39' W 009°23'1017.0
2016-Feb-04 11:32N 36°46' W 009°31'1717.2
2016-Feb-04 10:32N 37°03' W 009°37'3417.3
2016-Feb-04 08:33N 37°36' W 009°48'2019.6
2016-Feb-04 07:33N 37°55' W 009°54'1818.0
2016-Feb-04 06:33N 38°12' W 009°60'1818.3
2016-Feb-04 05:33N 38°30' W 010°04'1817.9
2016-Feb-04 04:33N 38°48' W 010°07'1817.8
2016-Feb-04 03:33N 39°06' W 010°08'1818.0
2016-Feb-04 02:33N 39°24' W 010°07'1818.1
2016-Feb-04 01:33N 39°42' W 010°06'2019.1
2016-Feb-04 00:29N 40°02' W 010°05'1818.2
2016-Feb-03 23:29N 40°20' W 010°06'1717.4
2016-Feb-03 22:32N 40°37' W 010°06'1918.9
2016-Feb-03 21:32N 40°56' W 010°05'1918.6
2016-Feb-03 20:32N 41°14' W 010°06'1817.8
2016-Feb-03 19:32N 41°32' W 010°07'63215.3
2016-Feb-02 02:09N 49°37' W 000°27'1016.8
2016-Feb-02 01:34N 49°33' W 000°13'1212.0
2016-Feb-02 00:34N 49°29' E 000°05'4 3.4
2016-Feb-01 23:31N 49°29' E 000°10'0 0.0
2016-Feb-01 22:31N 49°29' E 000°10'0 0.0
2016-Feb-01 21:31N 49°29' E 000°10'0 0.0
2016-Feb-01 20:28N 49°29' E 000°10'0 0.0
2016-Feb-01 19:31N 49°29' E 000°10'0 0.0
2016-Feb-01 18:31N 49°29' E 000°10'0 0.0
2016-Feb-01 17:31N 49°29' E 000°10'0 0.0
2016-Feb-01 16:31N 49°29' E 000°10'0 0.0
2016-Feb-01 15:31N 49°29' E 000°10'0 0.0
2016-Feb-01 14:31N 49°29' E 000°10'0 0.0
2016-Feb-01 13:31N 49°29' E 000°10'0 0.0
2016-Feb-01 12:31N 49°29' E 000°10'0 0.0
2016-Feb-01 11:31N 49°29' E 000°10'0 0.0
2016-Feb-01 10:31N 49°29' E 000°10'0 0.0
2016-Feb-01 09:31N 49°29' E 000°10'0 0.0
2016-Feb-01 08:31N 49°29' E 000°10'0 0.0
2016-Feb-01 07:31N 49°29' E 000°10'0 0.0
2016-Feb-01 06:31N 49°29' E 000°10'0 0.0
2016-Feb-01 05:31N 49°29' E 000°10'0 0.0
2016-Feb-01 04:31N 49°29' E 000°10'1 1.1
2016-Feb-01 03:33N 49°28' E 000°08'1010.1
2016-Feb-01 02:33N 49°31' W 000°06'7 7.4
2016-Feb-01 01:33N 49°38' W 000°11'1110.8
2016-Feb-01 00:33N 49°49' W 000°10'1110.6
2016-Jan-31 23:33N 49°60' W 000°09'2610.8
2016-Jan-31 21:08N 50°26' W 000°04'8 9.3
2016-Jan-31 20:18N 50°30' E 000°06'810.5
2016-Jan-31 19:30N 50°31' E 000°19'1010.7
2016-Jan-31 18:33N 50°33' E 000°35'1110.7
2016-Jan-31 17:33N 50°40' E 000°48'1110.9
2016-Jan-31 16:33N 50°46' E 001°02'1110.8
2016-Jan-31 15:33N 50°53' E 001°16'1010.2
2016-Jan-31 14:33N 51°00' E 001°26'1010.0
2016-Jan-31 13:34N 51°06' E 001°39'9 9.2
2016-Jan-31 12:34N 51°03' E 001°52'1211.7
2016-Jan-31 11:33N 51°01' E 002°11'0 0.1
2016-Jan-31 10:30N 51°00' E 002°11'0 0.0
2016-Jan-31 09:33N 51°00' E 002°11'0 0.0
2016-Jan-31 08:33N 51°00' E 002°11'0 0.0
2016-Jan-31 07:33N 51°00' E 002°11'0 0.0
2016-Jan-31 06:33N 51°00' E 002°11'0 0.0
2016-Jan-31 05:24N 51°00' E 002°11'0 0.0
2016-Jan-31 04:18N 51°00' E 002°11'0 0.0
2016-Jan-31 03:30N 51°00' E 002°11'0 0.0
2016-Jan-31 02:33N 51°00' E 002°11'3 3.0
2016-Jan-31 01:33N 51°03' E 002°08'1313.3
2016-Jan-31 00:34N 51°02' E 001°47'6 5.9
2016-Jan-30 23:33N 51°07' E 001°43'2019.9
2016-Jan-30 22:33N 51°21' E 002°06'1717.0
2016-Jan-30 21:33N 51°23' E 002°33'9 9.3
2016-Jan-30 20:34N 51°25' E 002°47'1615.9
2016-Jan-30 19:34N 51°24' E 003°13'1514.5
2016-Jan-30 18:33N 51°26' E 003°36'9 8.6
2016-Jan-30 17:33N 51°21' E 003°48'9 9.5
2016-Jan-30 16:33N 51°24' E 004°02'8 8.4
2016-Jan-30 15:33N 51°21' E 004°15'4 3.8
2016-Jan-30 14:33N 51°17' E 004°16'0 0.0
2016-Jan-30 13:33N 51°17' E 004°16'0 0.0
2016-Jan-30 12:33N 51°17' E 004°16'0 0.0
2016-Jan-30 11:33N 51°17' E 004°16'0 0.0
2016-Jan-30 10:33N 51°17' E 004°16'0 0.0
2016-Jan-30 09:33N 51°17' E 004°16'0 0.0
2016-Jan-30 08:33N 51°17' E 004°16'0 0.0
2016-Jan-30 07:33N 51°17' E 004°16'0 0.0
2016-Jan-30 06:33N 51°17' E 004°16'0 0.0
2016-Jan-30 05:33N 51°17' E 004°16'0 0.0
2016-Jan-30 04:33N 51°17' E 004°16'0 0.0
2016-Jan-30 03:33N 51°17' E 004°16'0 0.0
2016-Jan-30 02:33N 51°17' E 004°16'0 0.0
2016-Jan-30 01:33N 51°17' E 004°16'0 0.0
2016-Jan-30 00:32N 51°17' E 004°16'0 0.0
2016-Jan-29 23:32N 51°17' E 004°16'0 0.0
2016-Jan-29 22:26N 51°17' E 004°16'0 0.0
2016-Jan-29 21:32N 51°17' E 004°16'0 0.0
2016-Jan-29 20:28N 51°17' E 004°16'0 0.0
2016-Jan-29 19:31N 51°17' E 004°16'0 0.0
2016-Jan-29 18:28N 51°17' E 004°16'0 0.0
2016-Jan-29 17:31N 51°17' E 004°16'0 0.0
2016-Jan-29 16:31N 51°17' E 004°16'2 1.8
2016-Jan-29 15:33N 51°19' E 004°16'6 5.7
2016-Jan-29 14:33N 51°23' E 004°10'8 7.8
2016-Jan-29 13:34N 51°24' E 003°58'10 9.9
2016-Jan-29 12:33N 51°25' E 003°42'1211.7
2016-Jan-29 11:34N 51°24' E 003°23'1515.1
2016-Jan-29 10:34N 51°25' E 002°59'1515.1
2016-Jan-29 09:33N 51°38' E 003°11'8 8.4
2016-Jan-29 08:33N 51°46' E 003°08'8015.9
2016-Jan-29 03:33N 52°60' E 003°60'1919.1
2016-Jan-29 02:33N 53°12' E 004°24'2019.9
2016-Jan-29 01:32N 53°29' E 004°42'2020.2
2016-Jan-29 00:33N 53°37' E 005°12'1919.4
2016-Jan-28 23:33N 53°44' E 005°43'1919.1
2016-Jan-28 22:34N 53°49' E 006°14'1919.1
2016-Jan-28 21:33N 53°54' E 006°46'2117.6
2016-Jan-28 20:21N 53°58' E 007°21'1518.7
2016-Jan-28 19:34N 54°02' E 007°45'1817.5
2016-Jan-28 18:33N 54°00' E 008°15'1616.5
2016-Jan-28 17:33N 53°54' E 008°41'1413.8
2016-Jan-28 16:33N 53°52' E 009°04'1110.7
2016-Jan-28 15:33N 53°49' E 009°22'1111.1
2016-Jan-28 14:33N 53°40' E 009°31'9 9.0
2016-Jan-28 13:33N 53°34' E 009°43'8 7.5
2016-Jan-28 12:33N 53°32' E 009°55'0 0.0
2016-Jan-28 11:33N 53°32' E 009°55'0 0.0
2016-Jan-28 10:33N 53°32' E 009°55'0 0.0
2016-Jan-28 09:33N 53°32' E 009°55'0 0.0
2016-Jan-28 08:33N 53°32' E 009°55'  

Dump ship's entire track history